createdAt,value
2023-01-13T00:00:01.947Z,7.3
2023-01-13T00:01:01.886Z,7.2
2023-01-13T00:02:01.968Z,7.2
2023-01-13T00:03:02.000Z,7.2
2023-01-13T00:04:01.873Z,7.2
2023-01-13T00:05:01.850Z,7.2
2023-01-13T00:06:01.849Z,7.3
2023-01-13T00:07:01.759Z,7.2
2023-01-13T00:08:01.753Z,7.1
2023-01-13T00:09:01.602Z,7.2
2023-01-13T00:10:01.980Z,7.2
2023-01-13T00:11:01.693Z,7.2
2023-01-13T00:12:01.775Z,7.2
2023-01-13T00:13:01.649Z,7.1
2023-01-13T00:14:01.681Z,7.2
2023-01-13T00:15:01.532Z,7.2
2023-01-13T00:16:01.572Z,7.3
2023-01-13T00:17:01.761Z,7.2
2023-01-13T00:18:01.767Z,7.3
2023-01-13T00:19:01.628Z,7.3
2023-01-13T00:20:01.613Z,7.3
2023-01-13T00:21:01.417Z,7.3
2023-01-13T00:22:01.436Z,7.3
2023-01-13T00:23:02.411Z,7.2
2023-01-13T00:24:02.255Z,7.2
2023-01-13T00:25:02.243Z,7.2
2023-01-13T00:26:02.154Z,7.2
2023-01-13T00:27:02.189Z,7.3
2023-01-13T00:28:02.045Z,7.2
2023-01-13T00:29:02.098Z,7.2
2023-01-13T00:30:01.933Z,7.2
2023-01-13T00:31:01.943Z,7.2
2023-01-13T00:32:02.056Z,7.2
2023-01-13T00:33:02.107Z,7.2
2023-01-13T00:34:02.018Z,7.1
2023-01-13T00:35:02.043Z,7.2
2023-01-13T00:36:02.094Z,7.2
2023-01-13T00:37:01.929Z,7.3
2023-01-13T00:38:01.876Z,7.2
2023-01-13T00:39:01.831Z,7.2
2023-01-13T00:40:01.727Z,7.3
2023-01-13T00:41:01.727Z,7.3
2023-01-13T00:42:01.632Z,7.2
2023-01-13T00:43:01.604Z,7.3
2023-01-13T00:44:01.555Z,7.1
2023-01-13T00:45:01.424Z,7.2
2023-01-13T00:46:01.317Z,7.3
2023-01-13T00:47:01.421Z,7.2
2023-01-13T00:48:01.463Z,7.2
2023-01-13T00:49:02.429Z,7.3
2023-01-13T00:50:02.239Z,7.2
2023-01-13T00:51:02.312Z,7.4
2023-01-13T00:52:02.137Z,7.2
2023-01-13T00:53:02.252Z,7.2
2023-01-13T00:54:02.130Z,7.2
2023-01-13T00:55:02.173Z,7.1
2023-01-13T00:56:02.010Z,7.3
2023-01-13T00:57:02.045Z,7.2
2023-01-13T00:58:01.820Z,7.3
2023-01-13T00:59:01.728Z,7.3
2023-01-13T01:00:01.787Z,7.3
2023-01-13T01:01:01.831Z,7.2
2023-01-13T01:02:01.871Z,7.3
2023-01-13T01:03:02.068Z,7.3
2023-01-13T01:04:01.974Z,7.3
2023-01-13T01:05:01.984Z,7.3
2023-01-13T01:06:01.919Z,7.3
2023-01-13T01:07:01.869Z,7.3
2023-01-13T01:08:01.779Z,7.3
2023-01-13T01:09:01.896Z,7.2
2023-01-13T01:10:01.729Z,7.3
2023-01-13T01:11:01.824Z,7.3
2023-01-13T01:12:01.645Z,7.3
2023-01-13T01:13:01.691Z,7.2
2023-01-13T01:14:01.487Z,7.3
2023-01-13T01:15:01.437Z,7.4
2023-01-13T01:16:01.363Z,7.4
2023-01-13T01:17:01.636Z,7.4
2023-01-13T01:18:01.641Z,7.3
2023-01-13T01:19:01.467Z,7.4
2023-01-13T01:20:01.476Z,7.4
2023-01-13T01:21:02.399Z,7.3
2023-01-13T01:22:02.238Z,7.4
2023-01-13T01:23:02.315Z,7.4
2023-01-13T01:24:02.125Z,7.4
2023-01-13T01:25:02.150Z,7.4
2023-01-13T01:26:02.118Z,7.4
2023-01-13T01:27:02.164Z,7.4
2023-01-13T01:28:02.082Z,7.4
2023-01-13T01:29:02.292Z,7.4
2023-01-13T01:30:02.206Z,7.4
2023-01-13T01:31:02.222Z,7.5
2023-01-13T01:32:01.479Z,7.5
2023-01-13T01:33:01.541Z,7.5
2023-01-13T01:34:01.370Z,7.6
2023-01-13T01:35:01.367Z,7.6
2023-01-13T01:36:02.305Z,7.6
2023-01-13T01:37:02.174Z,7.6
2023-01-13T01:38:02.216Z,7.5
2023-01-13T01:39:02.058Z,7.6
2023-01-13T01:40:02.102Z,7.5
2023-01-13T01:41:01.955Z,7.6
2023-01-13T01:42:01.881Z,7.7
2023-01-13T01:43:01.955Z,7.7
2023-01-13T01:44:01.790Z,7.6
2023-01-13T01:45:01.732Z,7.6
2023-01-13T01:46:01.970Z,7.7
2023-01-13T01:47:01.944Z,7.7
2023-01-13T01:48:01.987Z,7.8
2023-01-13T01:49:02.027Z,7.7
2023-01-13T01:50:01.831Z,7.6
2023-01-13T01:51:01.780Z,7.7
2023-01-13T01:52:01.833Z,7.7
2023-01-13T01:53:01.625Z,7.6
2023-01-13T01:54:01.688Z,7.6
2023-01-13T01:55:01.550Z,7.6
2023-01-13T01:56:01.568Z,7.6
2023-01-13T01:57:01.456Z,7.6
2023-01-13T01:58:01.392Z,7.5
2023-01-13T01:59:02.387Z,7.6
2023-01-13T02:00:02.279Z,7.6
2023-01-13T02:01:02.555Z,7.5
2023-01-13T02:02:01.704Z,7.6
2023-01-13T02:03:01.901Z,7.6
2023-01-13T02:04:01.766Z,7.5
2023-01-13T02:05:01.722Z,7.6
2023-01-13T02:06:01.789Z,7.6
2023-01-13T02:07:01.654Z,7.6
2023-01-13T02:08:01.730Z,7.5
2023-01-13T02:09:01.541Z,7.5
2023-01-13T02:10:01.568Z,7.6
2023-01-13T02:11:01.384Z,7.6
2023-01-13T02:12:01.513Z,7.6
2023-01-13T02:13:01.340Z,7.6
2023-01-13T02:14:02.414Z,7.6
2023-01-13T02:15:02.321Z,7.5
2023-01-13T02:16:02.383Z,7.5
2023-01-13T02:17:01.536Z,7.5
2023-01-13T02:18:01.465Z,7.4
2023-01-13T02:19:01.362Z,7.5
2023-01-13T02:20:02.348Z,7.5
2023-01-13T02:21:02.256Z,7.6
2023-01-13T02:22:02.317Z,7.6
2023-01-13T02:23:02.186Z,7.5
2023-01-13T02:24:02.255Z,7.3
2023-01-13T02:25:02.104Z,7.4
2023-01-13T02:26:02.119Z,7.5
2023-01-13T02:27:02.072Z,7.5
2023-01-13T02:28:01.515Z,7.5
2023-01-13T02:29:01.707Z,7.5
2023-01-13T02:30:01.577Z,7.5
2023-01-13T02:31:01.584Z,7.5
2023-01-13T02:32:01.367Z,7.5
2023-01-13T02:33:01.452Z,7.4
2023-01-13T02:34:02.396Z,7.4
2023-01-13T02:35:02.260Z,7.5
2023-01-13T02:36:02.336Z,7.3
2023-01-13T02:37:02.282Z,7.4
2023-01-13T02:38:02.182Z,7.5
2023-01-13T02:39:02.085Z,7.4
2023-01-13T02:40:02.148Z,7.5
2023-01-13T02:41:01.982Z,7.3
2023-01-13T02:42:01.882Z,7.3
2023-01-13T02:43:01.815Z,7.3
2023-01-13T02:44:01.662Z,7.4
2023-01-13T02:45:01.814Z,7.4
2023-01-13T02:46:01.619Z,7.4
2023-01-13T02:47:01.755Z,7.4
2023-01-13T02:48:01.750Z,7.4
2023-01-13T02:49:01.536Z,7.4
2023-01-13T02:50:01.538Z,7.5
2023-01-13T02:51:01.362Z,7.4
2023-01-13T02:52:01.439Z,7.4
2023-01-13T02:53:02.384Z,7.5
2023-01-13T02:54:02.251Z,7.3
2023-01-13T02:55:02.268Z,7.4
2023-01-13T02:56:02.108Z,7.4
2023-01-13T02:57:02.132Z,7.4
2023-01-13T02:58:01.983Z,7.5
2023-01-13T02:59:01.865Z,7.5
2023-01-13T03:00:01.970Z,7.5
2023-01-13T03:01:01.801Z,7.5
2023-01-13T03:02:02.181Z,7.5
2023-01-13T03:03:01.637Z,7.5
2023-01-13T03:04:01.449Z,7.6
2023-01-13T03:05:01.521Z,7.6
2023-01-13T03:06:01.359Z,7.6
2023-01-13T03:07:02.365Z,7.6
2023-01-13T03:08:02.215Z,7.7
2023-01-13T03:09:02.255Z,7.7
2023-01-13T03:10:02.207Z,7.7
2023-01-13T03:11:02.212Z,7.7
2023-01-13T03:12:02.040Z,7.7
2023-01-13T03:13:02.062Z,7.6
2023-01-13T03:14:01.933Z,7.7
2023-01-13T03:15:01.872Z,7.8
2023-01-13T03:16:02.013Z,7.7
2023-01-13T03:17:02.256Z,7.7
2023-01-13T03:18:02.135Z,7.6
2023-01-13T03:19:02.115Z,7.6
2023-01-13T03:20:02.059Z,7.6
2023-01-13T03:21:01.956Z,7.6
2023-01-13T03:22:02.033Z,7.7
2023-01-13T03:23:01.905Z,7.7
2023-01-13T03:24:01.820Z,7.7
2023-01-13T03:25:01.910Z,7.7
2023-01-13T03:26:01.773Z,7.7
2023-01-13T03:27:01.728Z,7.7
2023-01-13T03:28:01.790Z,7.7
2023-01-13T03:29:01.682Z,7.6
2023-01-13T03:30:01.745Z,7.6
2023-01-13T03:31:01.656Z,7.5
2023-01-13T03:32:01.991Z,7.5
2023-01-13T03:33:02.178Z,7.5
2023-01-13T03:34:02.011Z,7.6
2023-01-13T03:35:01.984Z,7.5
2023-01-13T03:36:02.047Z,7.6
2023-01-13T03:37:01.848Z,7.6
2023-01-13T03:38:01.857Z,7.5
2023-01-13T03:39:01.913Z,7.6
2023-01-13T03:40:01.735Z,7.5
2023-01-13T03:41:01.777Z,7.6
2023-01-13T03:42:01.638Z,7.6
2023-01-13T03:43:01.709Z,7.5
2023-01-13T03:44:01.542Z,7.5
2023-01-13T03:45:01.515Z,7.4
2023-01-13T03:46:01.462Z,7.5
2023-01-13T03:47:01.896Z,7.5
2023-01-13T03:48:01.853Z,7.6
2023-01-13T03:49:01.792Z,7.5
2023-01-13T03:50:01.769Z,7.5
2023-01-13T03:51:01.714Z,7.5
2023-01-13T03:52:01.590Z,7.5
2023-01-13T03:53:01.571Z,7.4
2023-01-13T03:54:01.462Z,7.4
2023-01-13T03:55:01.486Z,7.5
2023-01-13T03:56:01.392Z,7.5
2023-01-13T03:57:01.367Z,7.4
2023-01-13T03:58:02.436Z,7.5
2023-01-13T03:59:01.326Z,7.5
2023-01-13T04:00:02.353Z,7.5
2023-01-13T04:01:02.429Z,7.5
2023-01-13T04:02:01.953Z,7.5
2023-01-13T04:03:02.243Z,7.4
2023-01-13T04:04:02.240Z,7.5
2023-01-13T04:05:02.271Z,7.4
2023-01-13T04:06:02.199Z,7.4
2023-01-13T04:07:02.207Z,7.5
2023-01-13T04:08:02.156Z,7.4
2023-01-13T04:09:02.188Z,7.4
2023-01-13T04:10:02.276Z,7.5
2023-01-13T04:11:02.172Z,7.5
2023-01-13T04:12:02.075Z,7.6
2023-01-13T04:13:01.992Z,7.6
2023-01-13T04:14:01.895Z,7.6
2023-01-13T04:15:01.846Z,7.6
2023-01-13T04:16:01.921Z,7.7
2023-01-13T04:17:02.125Z,7.7
2023-01-13T04:18:02.083Z,7.7
2023-01-13T04:19:02.034Z,7.7
2023-01-13T04:20:01.896Z,7.8
2023-01-13T04:21:01.799Z,7.7
2023-01-13T04:22:01.780Z,7.8
2023-01-13T04:23:01.686Z,7.8
2023-01-13T04:24:01.641Z,7.7
2023-01-13T04:25:01.532Z,7.8
2023-01-13T04:26:01.463Z,7.8
2023-01-13T04:27:01.366Z,7.9
2023-01-13T04:28:01.383Z,7.9
2023-01-13T04:29:02.324Z,7.8
2023-01-13T04:30:02.182Z,7.9
2023-01-13T04:31:02.276Z,7.9
2023-01-13T04:32:01.541Z,7.8
2023-01-13T04:33:01.445Z,7.8
2023-01-13T04:34:01.343Z,7.8
2023-01-13T04:35:02.328Z,8
2023-01-13T04:36:02.226Z,7.9
2023-01-13T04:37:02.202Z,7.9
2023-01-13T04:38:02.120Z,7.8
2023-01-13T04:39:02.067Z,7.8
2023-01-13T04:40:01.921Z,7.9
2023-01-13T04:41:01.900Z,8
2023-01-13T04:42:01.803Z,7.9
2023-01-13T04:43:01.678Z,7.8
2023-01-13T04:44:01.643Z,7.8
2023-01-13T04:45:01.524Z,7.9
2023-01-13T04:46:01.530Z,7.9
2023-01-13T04:47:01.839Z,7.9
2023-01-13T04:48:01.813Z,7.9
2023-01-13T04:49:01.765Z,7.9
2023-01-13T04:50:01.668Z,7.9
2023-01-13T04:51:01.652Z,7.9
2023-01-13T04:52:01.533Z,7.8
2023-01-13T04:53:01.445Z,7.8
2023-01-13T04:54:01.323Z,7.8
2023-01-13T04:55:02.329Z,7.9
2023-01-13T04:56:02.235Z,7.9
2023-01-13T04:57:02.212Z,7.9
2023-01-13T04:58:02.139Z,7.9
2023-01-13T04:59:02.148Z,7.9
2023-01-13T05:00:02.028Z,7.9
2023-01-13T05:01:02.011Z,7.9
2023-01-13T05:02:02.331Z,7.9
2023-01-13T05:03:02.265Z,7.9
2023-01-13T05:04:02.176Z,7.9
2023-01-13T05:05:02.165Z,7.9
2023-01-13T05:06:02.066Z,7.9
2023-01-13T05:07:01.976Z,7.9
2023-01-13T05:08:01.973Z,8
2023-01-13T05:09:01.910Z,8
2023-01-13T05:10:01.835Z,8
2023-01-13T05:11:01.756Z,8
2023-01-13T05:12:01.695Z,8
2023-01-13T05:13:01.630Z,8
2023-01-13T05:14:01.486Z,8.1
2023-01-13T05:15:01.438Z,8
2023-01-13T05:16:01.489Z,8
2023-01-13T05:17:02.013Z,8.1
2023-01-13T05:18:01.913Z,8.1
2023-01-13T05:19:01.805Z,8.1
2023-01-13T05:20:01.774Z,8
2023-01-13T05:21:01.709Z,8.1
2023-01-13T05:22:01.548Z,8.1
2023-01-13T05:23:01.528Z,8.1
2023-01-13T05:24:01.382Z,8.1
2023-01-13T05:25:01.347Z,8.1
2023-01-13T05:26:02.328Z,8.1
2023-01-13T05:27:02.208Z,8
2023-01-13T05:28:02.159Z,8.1
2023-01-13T05:29:02.027Z,8.1
2023-01-13T05:30:01.963Z,8.1
2023-01-13T05:31:01.911Z,8.1
2023-01-13T05:32:01.853Z,8.2
2023-01-13T05:33:01.914Z,8.2
2023-01-13T05:34:01.718Z,8.1
2023-01-13T05:35:01.677Z,8.1
2023-01-13T05:36:01.553Z,8.1
2023-01-13T05:37:01.530Z,8.1
2023-01-13T05:38:01.396Z,8
2023-01-13T05:39:01.389Z,8.1
2023-01-13T05:40:02.339Z,8.1
2023-01-13T05:41:02.235Z,8.1
2023-01-13T05:42:02.209Z,8
2023-01-13T05:43:02.127Z,8
2023-01-13T05:44:02.169Z,8
2023-01-13T05:45:02.038Z,8
2023-01-13T05:46:02.044Z,8.1
2023-01-13T05:47:01.456Z,8.1
2023-01-13T05:48:01.565Z,8.2
2023-01-13T05:49:01.372Z,8.1
2023-01-13T05:50:02.391Z,8.1
2023-01-13T05:51:02.254Z,8.2
2023-01-13T05:52:02.298Z,8.2
2023-01-13T05:53:02.131Z,8.2
2023-01-13T05:54:02.173Z,8.1
2023-01-13T05:55:02.084Z,8.1
2023-01-13T05:56:02.015Z,8.2
2023-01-13T05:57:02.149Z,8.2
2023-01-13T05:58:02.039Z,8.1
2023-01-13T05:59:02.000Z,8.2
2023-01-13T06:00:02.016Z,8.1
2023-01-13T06:01:01.982Z,8.1
2023-01-13T06:02:02.062Z,8.1
2023-01-13T06:03:02.171Z,8.2
2023-01-13T06:04:02.072Z,8.1
2023-01-13T06:05:02.192Z,8.2
2023-01-13T06:06:02.395Z,8.1
2023-01-13T06:07:02.215Z,8.1
2023-01-13T06:08:02.276Z,8.1
2023-01-13T06:09:02.179Z,8.1
2023-01-13T06:10:02.239Z,8
2023-01-13T06:11:02.082Z,8
2023-01-13T06:12:02.127Z,8
2023-01-13T06:13:01.959Z,8.1
2023-01-13T06:14:01.907Z,8
2023-01-13T06:15:01.962Z,8
2023-01-13T06:16:01.923Z,8
2023-01-13T06:17:02.011Z,7.9
2023-01-13T06:18:01.990Z,8.1
2023-01-13T06:19:01.892Z,8
2023-01-13T06:20:01.838Z,8
2023-01-13T06:21:01.886Z,8
2023-01-13T06:22:01.695Z,8
2023-01-13T06:23:01.740Z,8
2023-01-13T06:24:01.582Z,8
2023-01-13T06:25:01.586Z,8
2023-01-13T06:26:01.387Z,8.1
2023-01-13T06:27:02.346Z,8
2023-01-13T06:28:01.330Z,8
2023-01-13T06:29:02.363Z,8
2023-01-13T06:30:02.218Z,8
2023-01-13T06:31:02.253Z,8.1
2023-01-13T06:32:02.377Z,7.9
2023-01-13T06:33:02.322Z,8.1
2023-01-13T06:34:02.149Z,8
2023-01-13T06:35:04.174Z,8
2023-01-13T06:36:02.285Z,8.1
2023-01-13T06:37:02.308Z,8.1
2023-01-13T06:38:02.189Z,8.1
2023-01-13T06:39:02.149Z,8.1
2023-01-13T06:40:02.036Z,8.1
2023-01-13T06:41:02.056Z,8.1
2023-01-13T06:42:01.940Z,8.1
2023-01-13T06:43:01.962Z,8.1
2023-01-13T06:44:01.959Z,8.1
2023-01-13T06:45:01.733Z,8.1
2023-01-13T06:46:01.695Z,8.1
2023-01-13T06:47:02.015Z,8.1
2023-01-13T06:48:01.948Z,8
2023-01-13T06:49:01.812Z,8
2023-01-13T06:50:01.734Z,8.1
2023-01-13T06:51:01.763Z,8
2023-01-13T06:52:01.594Z,8.1
2023-01-13T06:53:01.640Z,8.1
2023-01-13T06:54:01.436Z,8
2023-01-13T06:55:01.579Z,8.1
2023-01-13T06:56:01.387Z,8
2023-01-13T06:57:01.423Z,8.1
2023-01-13T06:58:01.359Z,8.1
2023-01-13T06:59:02.394Z,8.1
2023-01-13T07:00:02.290Z,8.1
2023-01-13T07:01:02.259Z,8.1
2023-01-13T07:02:01.629Z,8.1
2023-01-13T07:03:01.808Z,8.1
2023-01-13T07:04:01.649Z,8.2
2023-01-13T07:05:01.655Z,8.1
2023-01-13T07:06:01.567Z,8.1
2023-01-13T07:07:01.466Z,8.2
2023-01-13T07:08:01.359Z,8.1
2023-01-13T07:09:01.452Z,8.2
2023-01-13T07:10:01.313Z,8.1
2023-01-13T07:11:02.330Z,8.2
2023-01-13T07:12:02.231Z,8.1
2023-01-13T07:13:02.276Z,8.1
2023-01-13T07:14:02.101Z,8.1
2023-01-13T07:15:02.081Z,8.1
2023-01-13T07:16:02.049Z,8.1
2023-01-13T07:17:02.258Z,8.1
2023-01-13T07:18:02.285Z,8.1
2023-01-13T07:19:02.135Z,8.1
2023-01-13T07:20:02.175Z,8
2023-01-13T07:21:01.703Z,8.1
2023-01-13T07:22:01.741Z,8
2023-01-13T07:23:01.583Z,8.1
2023-01-13T07:24:01.580Z,8.1
2023-01-13T07:25:01.441Z,8.2
2023-01-13T07:26:01.476Z,8.2
2023-01-13T07:27:01.329Z,8.2
2023-01-13T07:28:02.397Z,8.1
2023-01-13T07:29:02.222Z,8.1
2023-01-13T07:30:02.286Z,8.1
2023-01-13T07:31:02.136Z,8
2023-01-13T07:32:01.361Z,8
2023-01-13T07:33:01.409Z,8.1
2023-01-13T07:34:01.425Z,8.1
2023-01-13T07:35:01.425Z,8
2023-01-13T07:36:01.378Z,8
2023-01-13T07:37:01.462Z,8
2023-01-13T07:38:01.348Z,8.1
2023-01-13T07:39:02.383Z,8.1
2023-01-13T07:40:02.239Z,8.1
2023-01-13T07:41:02.270Z,8.1
2023-01-13T07:42:02.124Z,8.2
2023-01-13T07:43:02.171Z,8.1
2023-01-13T07:44:01.994Z,8.2
2023-01-13T07:45:01.949Z,8.1
2023-01-13T07:46:02.071Z,8.3
2023-01-13T07:47:01.966Z,8.2
2023-01-13T07:48:01.912Z,8.3
2023-01-13T07:49:01.977Z,8.2
2023-01-13T07:50:01.786Z,8.2
2023-01-13T07:51:01.724Z,8.2
2023-01-13T07:52:01.714Z,8.2
2023-01-13T07:53:01.642Z,8.2
2023-01-13T07:54:01.641Z,8.3
2023-01-13T07:55:01.509Z,8.3
2023-01-13T07:56:01.511Z,8.4
2023-01-13T07:57:01.389Z,8.3
2023-01-13T07:58:01.433Z,8.4
2023-01-13T07:59:02.392Z,8.3
2023-01-13T08:00:02.252Z,8.4
2023-01-13T08:01:02.334Z,8.5
2023-01-13T08:02:02.532Z,8.5
2023-01-13T08:03:02.127Z,8.6
2023-01-13T08:04:02.227Z,8.6
2023-01-13T08:05:02.062Z,8.4
2023-01-13T08:06:02.454Z,8.5
2023-01-13T08:07:02.302Z,8.5
2023-01-13T08:08:02.178Z,8.5
2023-01-13T08:09:02.111Z,8.4
2023-01-13T08:10:02.066Z,8.5
2023-01-13T08:11:01.952Z,8.5
2023-01-13T08:12:01.842Z,8.7
2023-01-13T08:13:01.889Z,8.6
2023-01-13T08:14:01.741Z,8.6
2023-01-13T08:15:01.734Z,8.6
2023-01-13T08:16:01.562Z,8.5
2023-01-13T08:17:01.419Z,8.5
2023-01-13T08:18:01.450Z,8.6
2023-01-13T08:19:01.357Z,8.4
2023-01-13T08:20:02.396Z,8.5
2023-01-13T08:21:02.239Z,8.6
2023-01-13T08:22:02.295Z,8.5
2023-01-13T08:23:02.116Z,8.6
2023-01-13T08:24:02.120Z,8.6
2023-01-13T08:25:02.074Z,8.5
2023-01-13T08:26:02.021Z,8.6
2023-01-13T08:27:02.040Z,8.6
2023-01-13T08:28:01.843Z,8.6
2023-01-13T08:29:01.780Z,8.6
2023-01-13T08:30:01.831Z,8.5
2023-01-13T08:31:01.780Z,8.6
2023-01-13T08:32:01.600Z,8.5
2023-01-13T08:33:01.569Z,8.4
2023-01-13T08:34:01.423Z,8.6
2023-01-13T08:35:01.434Z,8.6
2023-01-13T08:36:02.315Z,8.6
2023-01-13T08:37:02.205Z,8.6
2023-01-13T08:38:02.254Z,8.6
2023-01-13T08:39:02.072Z,8.4
2023-01-13T08:40:02.092Z,8.5
2023-01-13T08:41:01.947Z,8.5
2023-01-13T08:42:01.913Z,8.5
2023-01-13T08:43:01.832Z,8.5
2023-01-13T08:44:01.709Z,8.5
2023-01-13T08:45:01.617Z,8.6
2023-01-13T08:46:01.618Z,8.6
2023-01-13T08:47:01.710Z,8.6
2023-01-13T08:48:01.720Z,8.5
2023-01-13T08:49:01.597Z,8.5
2023-01-13T08:50:01.705Z,8.6
2023-01-13T08:51:01.576Z,8.6
2023-01-13T08:52:01.488Z,8.5
2023-01-13T08:53:01.393Z,8.6
2023-01-13T08:54:01.449Z,8.7
2023-01-13T08:55:01.352Z,8.6
2023-01-13T08:56:02.397Z,8.5
2023-01-13T08:57:02.360Z,8.7
2023-01-13T08:58:14.372Z,8.6
2023-01-13T08:59:01.868Z,8.6
2023-01-13T09:00:01.884Z,8.7
2023-01-13T09:01:01.804Z,8.7
2023-01-13T09:02:02.034Z,8.8
2023-01-13T09:03:02.184Z,8.8
2023-01-13T09:04:02.089Z,9
2023-01-13T09:05:02.193Z,8.9
2023-01-13T09:06:02.027Z,9
2023-01-13T09:07:02.003Z,8.9
2023-01-13T09:08:01.848Z,9
2023-01-13T09:09:01.784Z,9
2023-01-13T09:10:01.863Z,9.2
2023-01-13T09:11:01.681Z,9.3
2023-01-13T09:12:01.677Z,9.3
2023-01-13T09:13:01.513Z,9.1
2023-01-13T09:14:03.323Z,9.2
2023-01-13T09:15:02.384Z,9.3
2023-01-13T09:16:02.323Z,9.3
2023-01-13T09:17:02.167Z,9.2
2023-01-13T09:18:02.205Z,9.3
2023-01-13T09:19:02.054Z,9.2
2023-01-13T09:20:02.047Z,9.2
2023-01-13T09:21:01.921Z,9.1
2023-01-13T09:22:02.317Z,9.1
2023-01-13T09:23:02.084Z,9.1
2023-01-13T09:24:01.982Z,9
2023-01-13T09:25:01.928Z,9.1
2023-01-13T09:26:01.921Z,9.1
2023-01-13T09:27:01.799Z,9.2
2023-01-13T09:28:01.810Z,9.1
2023-01-13T09:29:01.697Z,9.1
2023-01-13T09:30:01.598Z,9.2
2023-01-13T09:31:01.624Z,9.1
2023-01-13T09:32:01.441Z,9
2023-01-13T09:33:01.514Z,9.1
2023-01-13T09:34:01.449Z,9.1
2023-01-13T09:35:01.538Z,9
2023-01-13T09:36:01.524Z,9.1
2023-01-13T09:37:01.479Z,9.1
2023-01-13T09:38:01.368Z,9.2
2023-01-13T09:39:01.457Z,9
2023-01-13T09:40:02.386Z,9.1
2023-01-13T09:41:02.242Z,9.1
2023-01-13T09:42:02.203Z,9.1
2023-01-13T09:43:02.118Z,9.2
2023-01-13T09:44:02.107Z,9.1
2023-01-13T09:45:01.964Z,9.1
2023-01-13T09:46:01.980Z,9.1
2023-01-13T09:47:02.171Z,9.2
2023-01-13T09:48:02.217Z,9.2
2023-01-13T09:49:02.068Z,9.3
2023-01-13T09:50:02.091Z,9.3
2023-01-13T09:51:02.058Z,9.4
2023-01-13T09:52:02.069Z,9.5
2023-01-13T09:53:02.127Z,9.3
2023-01-13T09:54:01.910Z,9.4
2023-01-13T09:55:01.785Z,9.4
2023-01-13T09:56:01.724Z,9.4
2023-01-13T09:57:01.618Z,9.3
2023-01-13T09:58:01.610Z,9.2
2023-01-13T09:59:01.430Z,9.4
2023-01-13T10:00:01.488Z,9.4
2023-01-13T10:01:01.373Z,9.3
2023-01-13T10:02:01.614Z,9.3
2023-01-13T10:03:01.585Z,9.3
2023-01-13T10:04:01.522Z,9.2
2023-01-13T10:05:01.554Z,9.4
2023-01-13T10:06:01.596Z,9.4
2023-01-13T10:07:01.625Z,9.5
2023-01-13T10:08:01.477Z,9.4
2023-01-13T10:09:01.435Z,9.5
2023-01-13T10:10:02.406Z,9.6
2023-01-13T10:11:01.329Z,9.6
2023-01-13T10:12:02.372Z,9.7
2023-01-13T10:13:02.288Z,9.7
2023-01-13T10:14:02.281Z,9.8
2023-01-13T10:15:02.108Z,9.7
2023-01-13T10:16:03.076Z,9.8
2023-01-13T10:17:02.085Z,9.7
2023-01-13T10:18:01.999Z,9.8
2023-01-13T10:19:02.060Z,9.8
2023-01-13T10:20:01.852Z,9.8
2023-01-13T10:21:01.800Z,9.6
2023-01-13T10:22:01.831Z,9.6
2023-01-13T10:23:01.646Z,9.7
2023-01-13T10:24:01.697Z,9.8
2023-01-13T10:25:01.585Z,9.7
2023-01-13T10:26:01.514Z,9.7
2023-01-13T10:27:01.402Z,9.8
2023-01-13T10:28:01.471Z,9.9
2023-01-13T10:29:02.403Z,9.6
2023-01-13T10:30:02.273Z,9.6
2023-01-13T10:31:02.290Z,9.7
2023-01-13T10:32:02.209Z,9.7
2023-01-13T10:33:02.300Z,9.6
2023-01-13T10:34:02.204Z,9.6
2023-01-13T10:35:02.319Z,9.6
2023-01-13T10:36:02.286Z,9.6
2023-01-13T10:37:02.227Z,9.6
2023-01-13T10:38:02.151Z,9.6
2023-01-13T10:39:02.187Z,9.7
2023-01-13T10:40:01.995Z,9.6
2023-01-13T10:41:02.032Z,9.7
2023-01-13T10:42:01.960Z,9.7
2023-01-13T10:43:01.863Z,9.7
2023-01-13T10:44:01.915Z,9.6
2023-01-13T10:45:01.725Z,9.6
2023-01-13T10:46:01.738Z,9.6
2023-01-13T10:47:02.013Z,9.5
2023-01-13T10:48:01.969Z,9.5
2023-01-13T10:49:02.129Z,9.5
2023-01-13T10:50:02.027Z,9.5
2023-01-13T10:51:01.975Z,9.6
2023-01-13T10:52:02.168Z,9.6
2023-01-13T10:53:02.322Z,9.7
2023-01-13T10:54:02.183Z,9.6
2023-01-13T10:55:02.255Z,9.7
2023-01-13T10:56:02.159Z,9.8
2023-01-13T10:57:02.165Z,9.9
2023-01-13T10:58:02.016Z,9.8
2023-01-13T10:59:02.001Z,9.7
2023-01-13T11:00:01.974Z,9.8
2023-01-13T11:01:01.983Z,9.8
2023-01-13T11:02:03.859Z,9.6
2023-01-13T11:03:01.748Z,9.7
2023-01-13T11:04:01.731Z,9.6
2023-01-13T11:05:01.705Z,9.7
2023-01-13T11:06:01.712Z,9.7
2023-01-13T11:07:01.750Z,9.8
2023-01-13T11:08:01.582Z,9.7
2023-01-13T11:09:01.516Z,9.7
2023-01-13T11:10:01.416Z,9.9
2023-01-13T11:11:01.461Z,9.9
2023-01-13T11:12:01.306Z,9.8
2023-01-13T11:13:02.357Z,9.9
2023-01-13T11:14:02.278Z,9.9
2023-01-13T11:15:02.339Z,10
2023-01-13T11:16:02.244Z,10
2023-01-13T11:17:02.283Z,10
2023-01-13T11:18:02.257Z,10
2023-01-13T11:19:02.213Z,10
2023-01-13T11:20:02.297Z,9.9
2023-01-13T11:21:02.125Z,9.9
2023-01-13T11:22:02.139Z,9.9
2023-01-13T11:23:01.996Z,9.9
2023-01-13T11:24:01.912Z,9.9
2023-01-13T11:25:01.986Z,9.9
2023-01-13T11:26:01.809Z,9.9
2023-01-13T11:27:01.689Z,9.9
2023-01-13T11:28:01.710Z,9.9
2023-01-13T11:29:01.546Z,9.9
2023-01-13T11:30:01.552Z,9.9
2023-01-13T11:31:01.411Z,9.9
2023-01-13T11:32:01.481Z,10
2023-01-13T11:33:01.596Z,9.8
2023-01-13T11:34:01.538Z,9.8
2023-01-13T11:35:01.559Z,9.9
2023-01-13T11:36:01.404Z,10
2023-01-13T11:37:01.503Z,9.9
2023-01-13T11:38:01.355Z,10.1
2023-01-13T11:39:02.408Z,9.9
2023-01-13T11:40:02.260Z,9.9
2023-01-13T11:41:02.288Z,9.8
2023-01-13T11:42:02.145Z,9.9
2023-01-13T11:43:02.294Z,10
2023-01-13T11:44:02.027Z,10
2023-01-13T11:45:02.076Z,10
2023-01-13T11:46:01.881Z,9.8
2023-01-13T11:47:01.692Z,9.9
2023-01-13T11:48:01.756Z,10
2023-01-13T11:49:01.588Z,10
2023-01-13T11:50:01.664Z,10
2023-01-13T11:51:01.510Z,10
2023-01-13T11:52:01.585Z,10
2023-01-13T11:53:01.528Z,10.1
2023-01-13T11:54:01.469Z,10.1
2023-01-13T11:55:01.320Z,10.1
2023-01-13T11:56:02.353Z,10.1
2023-01-13T11:57:02.187Z,10
2023-01-13T11:58:02.211Z,10.1
2023-01-13T11:59:02.059Z,10
2023-01-13T12:00:02.123Z,10.2
2023-01-13T12:01:01.964Z,10.1
2023-01-13T12:02:01.950Z,10
2023-01-13T12:03:02.137Z,10.1
2023-01-13T12:04:02.037Z,10.2
2023-01-13T12:05:01.945Z,10.3
2023-01-13T12:06:01.977Z,10.1
2023-01-13T12:07:01.820Z,10
2023-01-13T12:08:01.752Z,10.1
2023-01-13T12:09:01.789Z,9.9
2023-01-13T12:10:03.422Z,10
2023-01-13T12:11:01.817Z,10
2023-01-13T12:12:01.879Z,10
2023-01-13T12:13:01.750Z,10
2023-01-13T12:14:01.772Z,10
2023-01-13T12:15:01.618Z,10
2023-01-13T12:16:01.718Z,10
2023-01-13T12:17:01.613Z,10
2023-01-13T12:18:01.625Z,10
2023-01-13T12:19:01.464Z,10
2023-01-13T12:20:01.457Z,10
2023-01-13T12:21:02.415Z,9.9
2023-01-13T12:22:02.263Z,9.9
2023-01-13T12:23:02.305Z,9.9
2023-01-13T12:24:02.175Z,10
2023-01-13T12:25:02.202Z,10
2023-01-13T12:26:02.062Z,9.9
2023-01-13T12:27:02.268Z,9.9
2023-01-13T12:28:02.143Z,10
2023-01-13T12:29:02.235Z,10
2023-01-13T12:30:02.368Z,9.9
2023-01-13T12:31:02.242Z,10
2023-01-13T12:32:02.160Z,9.9
2023-01-13T12:33:02.234Z,10
2023-01-13T12:34:02.063Z,10
2023-01-13T12:35:02.053Z,10
2023-01-13T12:36:01.933Z,9.9
2023-01-13T12:37:01.903Z,9.9
2023-01-13T12:38:01.950Z,9.9
2023-01-13T12:39:01.737Z,10
2023-01-13T12:40:01.660Z,10
2023-01-13T12:41:01.635Z,9.9
2023-01-13T12:42:01.446Z,10
2023-01-13T12:43:01.503Z,10
2023-01-13T12:44:01.326Z,10
2023-01-13T12:45:02.358Z,9.9
2023-01-13T12:46:02.335Z,9.9
2023-01-13T12:47:01.438Z,9.9
2023-01-13T12:48:01.461Z,9.9
2023-01-13T12:49:01.342Z,9.9
2023-01-13T12:50:02.354Z,9.9
2023-01-13T12:51:02.240Z,9.9
2023-01-13T12:52:02.259Z,9.9
2023-01-13T12:53:02.105Z,10
2023-01-13T12:54:02.202Z,10
2023-01-13T12:55:01.990Z,9.9
2023-01-13T12:56:01.911Z,9.9
2023-01-13T12:57:01.943Z,10.1
2023-01-13T12:58:01.847Z,10.1
2023-01-13T12:59:01.737Z,10.1
2023-01-13T13:00:01.805Z,10.1
2023-01-13T13:01:01.713Z,10.2
2023-01-13T13:02:02.068Z,10.1
2023-01-13T13:03:02.325Z,10
2023-01-13T13:04:02.167Z,10
2023-01-13T13:05:02.205Z,10.1
2023-01-13T13:06:02.227Z,10.2
2023-01-13T13:07:02.250Z,10.2
2023-01-13T13:08:02.072Z,10.2
2023-01-13T13:09:03.824Z,10.2
2023-01-13T13:10:02.017Z,10.3
2023-01-13T13:11:01.944Z,10.1
2023-01-13T13:12:01.996Z,10.3
2023-01-13T13:13:01.896Z,10.2
2023-01-13T13:14:01.739Z,10.1
2023-01-13T13:15:03.321Z,10.2
2023-01-13T13:16:02.107Z,10.2
2023-01-13T13:17:01.544Z,10
2023-01-13T13:18:01.468Z,10.1
2023-01-13T13:19:01.360Z,10.2
2023-01-13T13:20:02.413Z,10.2
2023-01-13T13:21:03.927Z,10.2
2023-01-13T13:22:01.624Z,10.2
2023-01-13T13:23:01.599Z,10.2
2023-01-13T13:24:01.395Z,10.1
2023-01-13T13:25:01.439Z,10.2
2023-01-13T13:26:02.380Z,10
2023-01-13T13:27:03.664Z,10
2023-01-13T13:28:01.671Z,10.1
2023-01-13T13:29:01.644Z,10
2023-01-13T13:30:01.440Z,10.1
2023-01-13T13:31:01.487Z,10
2023-01-13T13:32:01.402Z,10.2
2023-01-13T13:33:01.427Z,10.2
2023-01-13T13:34:01.321Z,10.2
2023-01-13T13:35:02.369Z,10.6
2023-01-13T13:36:02.236Z,10.2
2023-01-13T13:37:02.276Z,10.3
2023-01-13T13:38:02.132Z,10.2
2023-01-13T13:39:02.194Z,10.6
2023-01-13T13:40:01.368Z,10.4
2023-01-13T13:41:01.474Z,10.4
2023-01-13T13:42:02.353Z,10.3
2023-01-13T13:43:02.241Z,10.2
2023-01-13T13:44:02.291Z,10.2
2023-01-13T13:45:02.136Z,9.9
2023-01-13T13:46:02.177Z,10.1
2023-01-13T13:47:02.405Z,10
2023-01-13T13:48:02.266Z,10
2023-01-13T13:49:02.291Z,10